createdAt,value
2023-02-14T00:00:36.266Z,5.50
2023-02-14T00:03:02.640Z,6.18
2023-02-14T00:05:28.973Z,5.95
2023-02-14T00:07:55.284Z,6.25
2023-02-14T00:10:21.598Z,6.18
2023-02-14T00:12:47.965Z,6.47
2023-02-14T00:15:23.126Z,6.15
2023-02-14T00:17:51.687Z,6.13
2023-02-14T00:20:18.313Z,6.13
2023-02-14T00:22:44.643Z,6.18
2023-02-14T00:25:11.001Z,5.82
2023-02-14T00:27:37.645Z,6.70
2023-02-14T00:30:05.026Z,6.15
2023-02-14T00:32:31.376Z,6.32
2023-02-14T00:34:57.777Z,6.22
2023-02-14T00:37:24.543Z,6.28
2023-02-14T00:39:51.158Z,5.75
2023-02-14T00:42:17.502Z,6.07
2023-02-14T00:44:43.795Z,5.47
2023-02-14T00:47:10.308Z,5.70
2023-02-14T00:49:36.636Z,6.40
2023-02-14T00:52:03.068Z,5.80
2023-02-14T00:54:29.387Z,6.03
2023-02-14T00:56:55.680Z,6.22
2023-02-14T00:59:21.980Z,6.15
2023-02-14T01:01:48.350Z,5.63
2023-02-14T01:04:14.641Z,6.13
2023-02-14T01:06:40.961Z,6.40
2023-02-14T01:09:07.350Z,5.22
2023-02-14T01:11:33.858Z,5.75
2023-02-14T01:14:00.320Z,5.38
2023-02-14T01:16:28.692Z,5.97
2023-02-14T01:18:56.109Z,5.57
2023-02-14T01:21:25.249Z,5.82
2023-02-14T01:23:54.392Z,6.20
2023-02-14T01:26:22.161Z,6.35
2023-02-14T01:28:48.797Z,6.22
2023-02-14T01:31:21.070Z,6.45
2023-02-14T01:33:48.653Z,5.82
2023-02-14T01:36:21.464Z,5.80
2023-02-14T01:38:50.444Z,6.40
2023-02-14T01:41:16.739Z,5.72
2023-02-14T01:43:57.047Z,5.93
2023-02-14T01:46:26.000Z,6.10
2023-02-14T01:48:55.452Z,6.35
2023-02-14T01:51:22.853Z,5.78
2023-02-14T01:53:50.710Z,6.57
2023-02-14T01:56:24.346Z,6.28
2023-02-14T01:58:53.085Z,6.00
2023-02-14T02:01:19.665Z,6.53
2023-02-14T02:03:53.749Z,6.72
2023-02-14T02:06:28.343Z,6.78
2023-02-14T02:09:19.940Z,6.57
2023-02-14T02:11:46.299Z,6.43
2023-02-14T02:14:19.334Z,6.82
2023-02-14T02:16:54.721Z,6.78
2023-02-14T02:20:00.298Z,6.38
2023-02-14T02:22:54.188Z,5.85
2023-02-14T02:26:08.392Z,6.05
2023-02-14T02:29:02.750Z,6.68
2023-02-14T02:31:29.096Z,7.05
2023-02-14T02:34:20.799Z,6.43
2023-02-14T02:37:07.743Z,7.28
2023-02-14T02:39:44.288Z,6.75
2023-02-14T02:42:52.493Z,6.68
2023-02-14T02:45:34.539Z,6.93
2023-02-14T02:48:14.318Z,7.80
2023-02-14T02:51:07.287Z,6.95
2023-02-14T02:53:47.631Z,6.72
2023-02-14T02:56:45.489Z,7.13
2023-02-14T02:59:19.118Z,7.43
2023-02-14T03:01:51.673Z,6.88
2023-02-14T03:04:52.897Z,7.32
2023-02-14T03:07:34.760Z,7.10
2023-02-14T03:10:25.864Z,7.18
2023-02-14T03:13:20.139Z,7.22
2023-02-14T03:16:13.802Z,6.53
2023-02-14T03:19:16.065Z,7.65
2023-02-14T03:22:08.373Z,7.70
2023-02-14T03:24:40.697Z,7.53
2023-02-14T03:27:16.817Z,7.70
2023-02-14T03:29:47.439Z,7.18
2023-02-14T03:32:18.133Z,7.88
2023-02-14T03:34:54.892Z,7.97
2023-02-14T03:37:29.688Z,8.05
2023-02-14T03:40:09.825Z,7.80
2023-02-14T03:42:44.473Z,7.75
2023-02-14T03:45:18.306Z,8.63
2023-02-14T03:47:46.411Z,8.95
2023-02-14T03:50:18.266Z,7.85
2023-02-14T03:52:46.953Z,8.02
2023-02-14T03:55:19.867Z,8.07
2023-02-14T03:58:01.844Z,8.63
2023-02-14T04:00:31.637Z,7.88
2023-02-14T04:03:04.679Z,8.15
2023-02-14T04:05:31.145Z,8.15
2023-02-14T04:07:58.524Z,8.38
2023-02-14T04:10:25.977Z,7.43
2023-02-14T04:12:53.252Z,7.97
2023-02-14T04:15:19.564Z,8.25
2023-02-14T04:18:04.364Z,8.40
2023-02-14T04:20:30.821Z,8.48
2023-02-14T04:22:57.635Z,8.70
2023-02-14T04:25:24.037Z,8.68
2023-02-14T04:27:50.327Z,8.27
2023-02-14T04:30:18.003Z,8.98
2023-02-14T04:32:44.730Z,7.90
2023-02-14T04:35:11.205Z,8.43
2023-02-14T04:37:37.541Z,8.70
2023-02-14T04:40:04.253Z,8.70
2023-02-14T04:42:30.612Z,9.18
2023-02-14T04:44:57.010Z,8.30
2023-02-14T04:47:23.288Z,8.73
2023-02-14T04:49:49.730Z,8.57
2023-02-14T04:52:16.141Z,8.13
2023-02-14T04:54:42.529Z,8.02
2023-02-14T04:57:08.975Z,8.45
2023-02-14T04:59:35.278Z,8.65
2023-02-14T05:02:01.661Z,8.52
2023-02-14T05:04:27.995Z,8.23
2023-02-14T05:06:54.299Z,9.60
2023-02-14T05:09:20.686Z,8.23
2023-02-14T05:11:47.029Z,10.20
2023-02-14T05:14:13.809Z,8.82
2023-02-14T05:16:40.261Z,8.80
2023-02-14T05:19:06.594Z,8.95
2023-02-14T05:21:33.119Z,10.35
2023-02-14T05:24:02.331Z,9.55
2023-02-14T05:26:29.134Z,9.88
2023-02-14T05:28:55.772Z,9.95
2023-02-14T05:31:22.802Z,9.57
2023-02-14T05:33:49.202Z,9.43
2023-02-14T05:36:15.539Z,9.95
2023-02-14T05:38:41.869Z,9.95
2023-02-14T05:41:08.294Z,9.40
2023-02-14T05:43:34.606Z,10.48
2023-02-14T05:46:00.998Z,10.00
2023-02-14T05:48:27.360Z,9.80
2023-02-14T05:50:53.720Z,9.55
2023-02-14T05:53:20.158Z,10.32
2023-02-14T05:55:46.879Z,9.45
2023-02-14T05:58:13.450Z,9.23
2023-02-14T06:00:41.419Z,9.40
2023-02-14T06:03:08.075Z,9.43
2023-02-14T06:05:34.614Z,9.23
2023-02-14T06:08:01.361Z,9.25
2023-02-14T06:10:27.788Z,9.98
2023-02-14T06:12:54.411Z,8.88
2023-02-14T06:15:21.665Z,9.27
2023-02-14T06:17:57.724Z,9.13
2023-02-14T06:20:24.621Z,8.55
2023-02-14T06:22:51.766Z,9.52
2023-02-14T06:25:18.247Z,9.15
2023-02-14T06:27:44.630Z,9.40
2023-02-14T06:30:11.713Z,8.85
2023-02-14T06:32:38.057Z,9.32
2023-02-14T06:35:04.841Z,9.13
2023-02-14T06:37:31.361Z,9.38
2023-02-14T06:39:57.723Z,8.88
2023-02-14T06:42:24.126Z,9.20
2023-02-14T06:44:50.581Z,9.20
2023-02-14T06:47:17.102Z,8.68
2023-02-14T06:49:43.533Z,8.75
2023-02-14T06:52:09.902Z,8.82
2023-02-14T06:54:36.280Z,8.98
2023-02-14T06:57:02.759Z,8.77
2023-02-14T06:59:29.089Z,9.50
2023-02-14T07:01:55.390Z,9.10
2023-02-14T07:04:21.705Z,9.40
2023-02-14T07:06:48.030Z,9.80
2023-02-14T07:09:18.173Z,8.63
2023-02-14T07:11:45.265Z,8.30
2023-02-14T07:14:11.949Z,8.82
2023-02-14T07:16:38.290Z,9.48
2023-02-14T07:19:04.621Z,9.38
2023-02-14T07:21:31.142Z,9.93
2023-02-14T07:23:57.454Z,8.90
2023-02-14T07:26:23.777Z,9.63
2023-02-14T07:28:50.125Z,8.85
2023-02-14T07:31:17.234Z,9.85
2023-02-14T07:33:43.886Z,9.35
2023-02-14T07:36:10.347Z,9.10
2023-02-14T07:38:37.050Z,8.85
2023-02-14T07:41:03.874Z,9.85
2023-02-14T07:43:30.291Z,8.38
2023-02-14T07:45:56.643Z,8.73
2023-02-14T07:48:23.055Z,9.07
2023-02-14T07:50:49.402Z,8.80
2023-02-14T07:53:15.758Z,9.15
2023-02-14T07:55:42.109Z,8.45
2023-02-14T07:58:08.421Z,9.15
2023-02-14T08:00:34.795Z,8.30
2023-02-14T08:03:01.127Z,8.57
2023-02-14T08:05:27.563Z,9.38
2023-02-14T08:07:53.903Z,8.93
2023-02-14T08:10:20.332Z,8.30
2023-02-14T08:12:58.673Z,10.15
2023-02-14T08:15:48.471Z,8.75
2023-02-14T08:18:15.337Z,8.45
2023-02-14T08:20:41.922Z,8.88
2023-02-14T08:23:08.234Z,8.65
2023-02-14T08:25:34.590Z,8.93
2023-02-14T08:28:02.735Z,9.63
2023-02-14T08:30:29.273Z,8.27
2023-02-14T08:32:55.683Z,8.82
2023-02-14T08:35:22.598Z,8.48
2023-02-14T08:37:49.837Z,9.57
2023-02-14T08:40:16.291Z,8.85
2023-02-14T08:42:42.591Z,7.03
2023-02-14T08:45:09.516Z,9.20
2023-02-14T08:47:38.300Z,9.35
2023-02-14T08:50:05.976Z,9.73
2023-02-14T08:52:32.424Z,8.65
2023-02-14T08:54:58.865Z,8.52
2023-02-14T08:57:25.394Z,9.43
2023-02-14T08:59:51.742Z,8.95
2023-02-14T09:02:18.082Z,9.07
2023-02-14T09:04:44.617Z,9.63
2023-02-14T09:07:14.922Z,9.60
2023-02-14T09:09:41.371Z,9.10
2023-02-14T09:12:09.018Z,9.52
2023-02-14T09:14:40.242Z,10.10
2023-02-14T09:17:07.392Z,9.73
2023-02-14T09:19:34.745Z,9.73
2023-02-14T09:22:03.673Z,8.90
2023-02-14T09:24:31.344Z,9.43
2023-02-14T09:26:58.152Z,10.15
2023-02-14T09:29:25.303Z,9.63
2023-02-14T09:31:56.076Z,9.77
2023-02-14T09:34:22.932Z,10.07
2023-02-14T09:36:49.215Z,10.70
2023-02-14T09:39:15.548Z,10.15
2023-02-14T09:41:57.079Z,9.82
2023-02-14T09:44:30.165Z,9.88
2023-02-14T09:47:05.568Z,9.75
2023-02-14T09:49:37.864Z,8.98
2023-02-14T09:52:07.338Z,10.65
2023-02-14T09:54:35.769Z,11.48
2023-02-14T09:57:23.313Z,9.57
2023-02-14T09:59:57.049Z,10.57
2023-02-14T10:02:46.225Z,10.88
2023-02-14T10:05:21.883Z,11.07
2023-02-14T10:08:06.825Z,9.88
2023-02-14T10:10:45.978Z,9.95
2023-02-14T10:13:18.096Z,10.48
2023-02-14T10:15:50.711Z,10.43
2023-02-14T10:18:28.882Z,10.52
2023-02-14T10:21:01.472Z,9.88
2023-02-14T10:23:40.657Z,9.07
2023-02-14T10:26:09.664Z,10.98
2023-02-14T10:28:43.994Z,10.35
2023-02-14T10:31:24.143Z,11.30
2023-02-14T10:34:12.215Z,10.57
2023-02-14T10:36:38.452Z,9.85
2023-02-14T10:39:15.040Z,11.23
2023-02-14T10:42:00.105Z,10.73
2023-02-14T10:44:48.285Z,11.48
2023-02-14T10:47:27.759Z,11.00
2023-02-14T10:50:21.949Z,10.82
2023-02-14T10:53:04.598Z,10.45
2023-02-14T10:55:56.873Z,10.38
2023-02-14T10:58:26.528Z,10.90
2023-02-14T11:01:00.890Z,10.43
2023-02-14T11:03:28.888Z,11.27
2023-02-14T11:05:55.559Z,9.43
2023-02-14T11:08:25.190Z,11.00
2023-02-14T11:10:52.195Z,10.38
2023-02-14T11:13:37.884Z,11.70
2023-02-14T11:16:10.613Z,10.70
2023-02-14T11:18:39.780Z,11.10
2023-02-14T11:21:08.118Z,11.65
2023-02-14T11:23:41.045Z,11.52
2023-02-14T11:26:14.323Z,10.52
2023-02-14T11:29:01.457Z,11.52
2023-02-14T11:31:29.551Z,10.90
2023-02-14T11:33:56.720Z,10.63
2023-02-14T11:36:23.671Z,10.18
2023-02-14T11:39:06.494Z,11.45
2023-02-14T11:41:59.098Z,8.93
2023-02-14T11:44:28.385Z,12.05
2023-02-14T11:46:56.972Z,11.27
2023-02-14T11:49:30.069Z,11.13
2023-02-14T11:52:10.317Z,11.80
2023-02-14T11:54:39.933Z,11.47
2023-02-14T11:57:11.738Z,16.42
2023-02-14T11:59:43.182Z,13.23
2023-02-14T12:02:28.907Z,11.07
2023-02-14T12:05:01.641Z,10.98
2023-02-14T12:07:35.777Z,10.75
2023-02-14T12:10:17.051Z,10.32
2023-02-14T12:13:09.616Z,10.63
2023-02-14T12:15:49.139Z,10.80
2023-02-14T12:18:37.269Z,11.80
2023-02-14T12:21:12.587Z,10.35
2023-02-14T12:24:01.252Z,11.32
2023-02-14T12:26:43.148Z,11.00
2023-02-14T12:29:12.510Z,12.38
2023-02-14T12:31:38.904Z,11.75
2023-02-14T12:34:05.697Z,11.27
2023-02-14T12:36:37.776Z,10.90
2023-02-14T12:39:10.233Z,11.02
2023-02-14T12:42:05.857Z,10.43
2023-02-14T12:45:04.152Z,10.43
2023-02-14T12:47:52.085Z,10.40
2023-02-14T12:51:00.924Z,10.82
2023-02-14T12:53:51.020Z,10.57
2023-02-14T12:57:01.025Z,10.30
2023-02-14T12:59:49.920Z,10.70
2023-02-14T13:02:22.642Z,10.52
2023-02-14T13:04:57.043Z,10.75
2023-02-14T13:07:40.973Z,11.77
2023-02-14T13:10:20.976Z,11.07
2023-02-14T13:13:02.996Z,10.60
2023-02-14T13:15:45.448Z,10.25
2023-02-14T13:18:35.165Z,10.88
2023-02-14T13:21:05.912Z,10.75
2023-02-14T13:23:41.932Z,10.50
2023-02-14T13:26:19.160Z,10.45
2023-02-14T13:28:51.542Z,11.25
2023-02-14T13:31:20.369Z,9.38
2023-02-14T13:33:52.402Z,10.18
2023-02-14T13:36:20.674Z,9.57
2023-02-14T13:41:23.253Z,9.73
2023-02-14T13:43:56.046Z,10.45
2023-02-14T13:46:47.766Z,8.60
2023-02-14T13:49:34.545Z,10.63
2023-02-14T13:52:06.071Z,10.35
2023-02-14T13:54:47.109Z,10.35
2023-02-14T13:57:36.360Z,10.35
2023-02-14T14:00:17.852Z,10.63
2023-02-14T14:02:48.262Z,10.48
2023-02-14T14:05:30.073Z,10.32
2023-02-14T14:08:18.754Z,11.15
2023-02-14T14:10:48.027Z,10.52
2023-02-14T14:13:42.602Z,9.82
2023-02-14T14:16:26.138Z,10.40
2023-02-14T14:18:55.440Z,11.02
2023-02-14T14:21:38.913Z,10.95
2023-02-14T14:24:20.758Z,10.43
2023-02-14T14:26:50.632Z,9.35
2023-02-14T14:29:30.496Z,10.73
2023-02-14T14:31:57.370Z,10.57
2023-02-14T14:34:27.041Z,10.07
2023-02-14T14:37:08.049Z,10.30
2023-02-14T14:39:36.033Z,10.25
2023-02-14T14:42:08.405Z,10.23
2023-02-14T14:44:36.070Z,9.75
2023-02-14T14:47:02.726Z,9.95
2023-02-14T14:49:29.456Z,9.90
2023-02-14T14:51:57.106Z,10.48
2023-02-14T14:54:27.499Z,10.45
2023-02-14T14:56:59.140Z,10.43
2023-02-14T14:59:25.429Z,10.43
2023-02-14T15:01:52.428Z,9.93
2023-02-14T15:04:48.273Z,11.05
2023-02-14T15:07:20.934Z,10.18
2023-02-14T15:09:47.421Z,10.70
2023-02-14T15:12:38.262Z,9.90
2023-02-14T15:15:05.673Z,10.70
2023-02-14T15:17:32.923Z,10.50
2023-02-14T15:20:07.131Z,11.25
2023-02-14T15:22:41.993Z,10.50
2023-02-14T15:25:18.313Z,10.90
2023-02-14T15:27:45.136Z,10.20
2023-02-14T15:30:20.770Z,10.18
2023-02-14T15:32:49.313Z,10.77
2023-02-14T15:35:18.556Z,10.93
2023-02-14T15:37:46.569Z,10.80
2023-02-14T15:40:42.880Z,10.80
2023-02-14T15:43:18.528Z,11.23
2023-02-14T15:45:48.532Z,10.45
2023-02-14T15:48:18.454Z,10.57
2023-02-14T15:50:49.194Z,10.82
2023-02-14T15:53:29.012Z,11.32
2023-02-14T15:56:03.311Z,11.68
2023-02-14T15:58:32.430Z,10.88
2023-02-14T16:00:59.857Z,10.65
2023-02-14T16:03:30.652Z,10.10
2023-02-14T16:05:57.425Z,10.55
2023-02-14T16:08:29.556Z,9.90
2023-02-14T16:11:13.475Z,11.10
2023-02-14T16:13:46.711Z,11.25
2023-02-14T16:16:15.027Z,11.38
2023-02-14T16:18:47.581Z,11.02
2023-02-14T16:21:25.657Z,11.75
2023-02-14T16:24:07.237Z,11.63
2023-02-14T16:26:35.485Z,11.55
2023-02-14T16:29:06.393Z,12.68
2023-02-14T16:31:33.540Z,11.73
2023-02-14T16:34:00.281Z,12.20
2023-02-14T16:36:29.567Z,12.05
2023-02-14T16:38:56.504Z,11.80
2023-02-14T16:41:29.574Z,12.57
2023-02-14T16:43:56.472Z,12.18
2023-02-14T16:46:25.747Z,11.90
2023-02-14T16:48:52.933Z,12.18
2023-02-14T16:51:22.301Z,12.43
2023-02-14T16:53:49.752Z,12.50
2023-02-14T16:56:25.795Z,12.43
2023-02-14T16:58:52.099Z,13.05
2023-02-14T17:01:19.911Z,15.05
2023-02-14T17:03:46.266Z,13.05
2023-02-14T17:06:16.766Z,12.05
2023-02-14T17:08:43.741Z,12.88
2023-02-14T17:11:10.991Z,15.95
2023-02-14T17:13:41.137Z,16.17
2023-02-14T17:16:10.875Z,15.63
2023-02-14T17:18:38.675Z,16.23
2023-02-14T17:21:05.334Z,14.40
2023-02-14T17:23:31.641Z,13.70
2023-02-14T17:25:57.988Z,13.90
2023-02-14T17:28:26.428Z,12.73
2023-02-14T17:30:53.602Z,13.18
2023-02-14T17:33:20.022Z,13.63
2023-02-14T17:35:46.453Z,13.82
2023-02-14T17:38:12.949Z,14.68
2023-02-14T17:40:39.309Z,13.60
2023-02-14T17:43:05.736Z,13.63
2023-02-14T17:45:32.094Z,14.57
2023-02-14T17:47:58.440Z,14.10
2023-02-14T17:50:24.757Z,13.82
2023-02-14T17:52:57.141Z,12.50
2023-02-14T17:55:23.747Z,13.63
2023-02-14T17:57:52.992Z,13.48
2023-02-14T18:00:23.705Z,13.10
2023-02-14T18:02:50.123Z,14.45
2023-02-14T18:05:16.943Z,15.05
2023-02-14T18:07:43.274Z,14.73
2023-02-14T18:10:11.199Z,13.43
2023-02-14T18:12:37.881Z,15.38
2023-02-14T18:15:05.462Z,14.95
2023-02-14T18:17:31.793Z,16.63
2023-02-14T18:19:58.666Z,15.63
2023-02-14T18:22:25.064Z,17.88
2023-02-14T18:24:51.420Z,19.05
2023-02-14T18:27:17.849Z,16.60
2023-02-14T18:29:44.203Z,15.07
2023-02-14T18:32:10.528Z,17.60
2023-02-14T18:34:37.548Z,20.85
2023-02-14T18:37:04.457Z,21.85
2023-02-14T18:39:32.490Z,20.85
2023-02-14T18:41:59.961Z,19.75
2023-02-14T18:44:28.035Z,18.85
2023-02-14T18:46:54.495Z,15.52
2023-02-14T18:49:20.809Z,13.43
2023-02-14T18:51:48.853Z,14.40
2023-02-14T18:54:15.230Z,12.98
2023-02-14T18:56:41.563Z,12.93
2023-02-14T18:59:09.737Z,11.48
2023-02-14T19:01:39.366Z,11.82
2023-02-14T19:04:08.544Z,14.15
2023-02-14T19:06:35.813Z,14.45
2023-02-14T19:09:03.442Z,14.18
2023-02-14T19:11:31.518Z,13.48
2023-02-14T19:13:59.381Z,13.65
2023-02-14T19:16:31.763Z,14.05
2023-02-14T19:18:58.939Z,13.82
2023-02-14T19:21:27.741Z,13.98
2023-02-14T19:23:58.304Z,13.68
2023-02-14T19:26:26.897Z,12.38
2023-02-14T19:29:01.889Z,13.50
2023-02-14T19:31:28.748Z,12.25
2023-02-14T19:33:55.301Z,15.68
2023-02-14T19:36:23.027Z,14.90
2023-02-14T19:38:52.751Z,13.80
2023-02-14T19:41:21.211Z,13.73
2023-02-14T19:43:48.877Z,17.40
2023-02-14T19:46:17.009Z,18.95
2023-02-14T19:48:44.475Z,23.33
2023-02-14T19:51:35.864Z,19.27
2023-02-14T19:54:05.499Z,20.27
2023-02-14T19:56:34.587Z,17.83
2023-02-14T19:59:07.460Z,17.02
2023-02-14T20:01:36.109Z,16.05
2023-02-14T20:04:03.923Z,13.85
2023-02-14T20:06:30.544Z,16.25
2023-02-14T20:08:57.569Z,15.15
2023-02-14T20:11:41.261Z,13.98
2023-02-14T20:14:08.606Z,13.35
2023-02-14T20:16:36.873Z,12.52
2023-02-14T20:19:05.438Z,15.90
2023-02-14T20:21:31.781Z,15.10
2023-02-14T20:24:02.372Z,16.35
2023-02-14T20:26:34.159Z,16.25
2023-02-14T20:29:04.034Z,16.10
2023-02-14T20:31:32.004Z,16.08
2023-02-14T20:33:58.970Z,14.52
2023-02-14T20:36:26.425Z,14.40
2023-02-14T20:38:56.692Z,14.05
2023-02-14T20:41:23.316Z,12.43
2023-02-14T20:43:49.733Z,13.10
2023-02-14T20:46:16.125Z,13.45
2023-02-14T20:48:42.508Z,13.85
2023-02-14T20:51:11.082Z,12.85
2023-02-14T20:53:37.850Z,15.88
2023-02-14T20:56:04.644Z,14.00
2023-02-14T20:58:31.750Z,14.25
2023-02-14T21:01:13.228Z,17.67
2023-02-14T21:03:41.575Z,17.35
2023-02-14T21:06:11.360Z,16.33
2023-02-14T21:08:38.621Z,17.15
2023-02-14T21:11:06.424Z,16.08
2023-02-14T21:13:33.760Z,18.83
2023-02-14T21:16:05.614Z,16.67
2023-02-14T21:18:33.405Z,15.48
2023-02-14T21:21:08.047Z,15.23
2023-02-14T21:23:34.408Z,15.95
2023-02-14T21:26:00.841Z,15.70
2023-02-14T21:28:27.177Z,15.38
2023-02-14T21:31:11.265Z,16.75
2023-02-14T21:33:37.886Z,16.02
2023-02-14T21:36:11.737Z,15.27
2023-02-14T21:38:38.652Z,17.08
2023-02-14T21:41:10.323Z,17.23
2023-02-14T21:43:40.841Z,16.23
2023-02-14T21:46:10.081Z,17.02
2023-02-14T21:48:55.498Z,15.38
2023-02-14T21:51:22.429Z,15.45
2023-02-14T21:53:49.039Z,16.75
2023-02-14T21:56:19.454Z,15.60
2023-02-14T21:58:47.847Z,16.80
2023-02-14T22:01:19.780Z,15.65
2023-02-14T22:03:46.339Z,16.80
2023-02-14T22:06:13.214Z,15.55
2023-02-14T22:08:39.796Z,16.98
2023-02-14T22:11:07.818Z,16.88
2023-02-14T22:13:34.826Z,17.60
2023-02-14T22:16:10.482Z,15.90
2023-02-14T22:18:37.486Z,15.15
2023-02-14T22:21:06.337Z,16.63
2023-02-14T22:23:33.880Z,15.23
2023-02-14T22:26:17.226Z,17.13
2023-02-14T22:28:46.592Z,16.20
2023-02-14T22:31:14.155Z,16.95
2023-02-14T22:33:41.034Z,15.32
2023-02-14T22:36:08.446Z,14.98
2023-02-14T22:38:35.911Z,15.65
2023-02-14T22:41:07.508Z,15.38
2023-02-14T22:43:35.229Z,15.75
2023-02-14T22:46:06.409Z,15.38
2023-02-14T22:48:34.291Z,14.75
2023-02-14T22:51:20.826Z,14.55
2023-02-14T22:53:48.007Z,13.63
2023-02-14T22:56:18.897Z,13.55
2023-02-14T22:58:45.939Z,14.77
2023-02-14T23:01:21.986Z,13.98
2023-02-14T23:03:48.980Z,15.15
2023-02-14T23:06:15.796Z,15.07
2023-02-14T23:08:44.677Z,13.95
2023-02-14T23:11:13.872Z,14.80
2023-02-14T23:13:59.691Z,14.60
2023-02-14T23:16:44.377Z,15.32
2023-02-14T23:19:34.732Z,14.98
2023-02-14T23:22:22.385Z,14.60
2023-02-14T23:24:50.539Z,14.45
2023-02-14T23:27:21.741Z,14.32
2023-02-14T23:29:48.113Z,13.95
2023-02-14T23:32:15.151Z,14.30
2023-02-14T23:34:43.813Z,14.60
2023-02-14T23:37:11.412Z,14.55
2023-02-14T23:39:37.839Z,14.43
2023-02-14T23:42:10.637Z,13.77
2023-02-14T23:44:37.475Z,13.68
2023-02-14T23:47:06.075Z,15.35
2023-02-14T23:49:34.311Z,15.15
2023-02-14T23:52:00.664Z,14.20
2023-02-14T23:54:27.188Z,13.32
2023-02-14T23:56:53.991Z,14.50
2023-02-14T23:59:21.737Z,12.80
